EZY23RD EGKK-LSZH
Flight info
| Callsign | EZY23RD |
|---|---|
| Flight time | N/A |
| Altitude | 29000 |
| Route | ODVIK Y311 DVR UL9 KONAN DCT KOK DCT REMBA DCT RITAX DCT SUTAL DCT GTQ DCT BAMEV DCT BLM |
| Aircraft | A319/M-SDE2E3FGIJ1RWXYZ/LB1 |
Departure
| Time | 2026-05-06 17:50 |
|---|---|
| Airport | London Gatwick Airport (EGKK) |
Arrival
| Time | N/A |
|---|---|
| Airport | Zürich Airport (LSZH) |
| Time | Latitude | Longitude | Altitude | Speed | Heading |
|---|---|---|---|---|---|
| 2026-05-06 16:37 | 51.15201 | -0.18872 | 213 ft | 0 kts | 257° |
| 2026-05-06 17:32 | 51.15202 | -0.18862 | 216 ft | 4 kts | 256° |
| 2026-05-06 17:32 | 51.15209 | -0.18821 | 211 ft | 4 kts | 253° |
| 2026-05-06 17:32 | 51.15218 | -0.18780 | 217 ft | 4 kts | 246° |
| 2026-05-06 17:33 | 51.15231 | -0.18743 | 217 ft | 4 kts | 225° |
| 2026-05-06 17:33 | 51.15249 | -0.18727 | 215 ft | 2 kts | 168° |
| 2026-05-06 17:33 | 51.15254 | -0.18729 | 215 ft | 0 kts | 167° |
| 2026-05-06 17:35 | 51.15252 | -0.18729 | 215 ft | 1 kts | 167° |
| 2026-05-06 17:35 | 51.15236 | -0.18723 | 217 ft | 5 kts | 167° |
| 2026-05-06 17:35 | 51.15198 | -0.18709 | 216 ft | 6 kts | 167° |
| 2026-05-06 17:36 | 51.15128 | -0.18768 | 206 ft | 7 kts | 253° |
| 2026-05-06 17:36 | 51.15115 | -0.18848 | 207 ft | 8 kts | 257° |
| 2026-05-06 17:36 | 51.15100 | -0.18958 | 209 ft | 12 kts | 257° |
| 2026-05-06 17:36 | 51.15079 | -0.19111 | 205 ft | 16 kts | 257° |
| 2026-05-06 17:37 | 51.15053 | -0.19310 | 210 ft | 20 kts | 258° |
| 2026-05-06 17:37 | 51.15019 | -0.19551 | 210 ft | 24 kts | 258° |
| 2026-05-06 17:37 | 51.14981 | -0.19831 | 208 ft | 27 kts | 258° |
| 2026-05-06 17:37 | 51.14941 | -0.20122 | 215 ft | 27 kts | 257° |
| 2026-05-06 17:38 | 51.14900 | -0.20413 | 209 ft | 27 kts | 257° |
| 2026-05-06 17:38 | 51.14859 | -0.20704 | 205 ft | 27 kts | 258° |
| 2026-05-06 17:38 | 51.14826 | -0.20948 | 215 ft | 12 kts | 257° |
| 2026-05-06 17:38 | 51.14808 | -0.21081 | 211 ft | 13 kts | 257° |
| 2026-05-06 17:39 | 51.14781 | -0.21214 | 209 ft | 13 kts | 256° |
| 2026-05-06 17:39 | 51.14760 | -0.21351 | 205 ft | 10 kts | 256° |
| 2026-05-06 17:39 | 51.14753 | -0.21394 | 205 ft | 2 kts | 246° |
| 2026-05-06 17:39 | 51.14740 | -0.21409 | 214 ft | 3 kts | 205° |
| 2026-05-06 17:40 | 51.14736 | -0.21410 | 212 ft | 0 kts | 193° |
| 2026-05-06 17:41 | 51.14724 | -0.21410 | 205 ft | 2 kts | 179° |
| 2026-05-06 17:41 | 51.14706 | -0.21403 | 205 ft | 4 kts | 163° |
| 2026-05-06 17:41 | 51.14680 | -0.21382 | 210 ft | 6 kts | 150° |
| 2026-05-06 17:42 | 51.14642 | -0.21345 | 209 ft | 6 kts | 147° |
| 2026-05-06 17:42 | 51.14617 | -0.21330 | 211 ft | 0 kts | 167° |
| 2026-05-06 17:43 | 51.14616 | -0.21330 | 211 ft | 0 kts | 167° |
| 2026-05-06 17:47 | 51.14615 | -0.21330 | 210 ft | 1 kts | 167° |
| 2026-05-06 17:47 | 51.14587 | -0.21319 | 211 ft | 7 kts | 166° |
| 2026-05-06 17:47 | 51.14536 | -0.21259 | 210 ft | 12 kts | 127° |
| 2026-05-06 17:47 | 51.14524 | -0.21146 | 206 ft | 0 kts | 80° |
| 2026-05-06 17:49 | 51.14525 | -0.21142 | 206 ft | 3 kts | 80° |
| 2026-05-06 17:49 | 51.14574 | -0.20783 | 212 ft | 72 kts | 77° |
| 2026-05-06 17:50 | 51.14734 | -0.19629 | 211 ft | 138 kts | 77° |
| 2026-05-06 17:50 | 51.14979 | -0.17940 | 538 ft | 161 kts | 73° |
| 2026-05-06 17:50 | 51.15223 | -0.16197 | 1304 ft | 161 kts | 74° |